Time;durP1;ratioP1;P1;durP2;ratioP2;P2;SDS_P1;SDS_P2;PMS_P1;PMS_P2;Temp;Humidity;BMP_temperature;BMP_pressure;BME280_temperature;BME280_humidity;BME280_pressure;Samples;Min_cycle;Max_cycle;Signal;HPM_P1;HPM_P2
2021/10/29 00:00:24;;;;;;;27.48;18.95;;;9.40;99.90;;;;;;5116753;28;20096;-70
2021/10/29 00:02:50;;;;;;;26.98;17.92;;;9.50;99.90;;;;;;5117303;28;20031;-70
2021/10/29 00:05:15;;;;;;;26.35;18.17;;;9.50;99.90;;;;;;5117034;28;20380;-70
2021/10/29 00:07:41;;;;;;;24.83;17.85;;;9.40;99.90;;;;;;5117146;28;20042;-70
2021/10/29 00:10:07;;;;;;;25.63;18.20;;;9.40;99.90;;;;;;5116319;28;20058;-70
2021/10/29 00:12:32;;;;;;;25.45;18.58;;;9.40;99.90;;;;;;5115520;28;20042;-70
2021/10/29 00:14:58;;;;;;;27.02;18.45;;;9.40;99.90;;;;;;5116835;28;20118;-70
2021/10/29 00:17:24;;;;;;;29.02;18.98;;;9.40;99.90;;;;;;5116461;28;20141;-70
2021/10/29 00:19:50;;;;;;;31.00;19.50;;;9.30;99.90;;;;;;5116667;28;20046;-70
2021/10/29 00:22:16;;;;;;;25.50;18.10;;;9.40;99.90;;;;;;5116390;28;20043;-70
2021/10/29 00:24:43;;;;;;;28.10;18.55;;;9.30;99.90;;;;;;5116385;28;20047;-70
2021/10/29 00:27:09;;;;;;;28.17;18.63;;;9.30;99.90;;;;;;5114959;28;20407;-70
2021/10/29 00:29:35;;;;;;;28.67;18.35;;;9.30;99.90;;;;;;5115902;28;20039;-70
2021/10/29 00:32:00;;;;;;;28.88;17.88;;;9.40;99.90;;;;;;5115164;28;20433;-70
2021/10/29 00:34:26;;;;;;;29.90;18.27;;;9.30;99.90;;;;;;5114889;28;20499;-70
2021/10/29 00:36:51;;;;;;;32.83;18.30;;;9.40;99.90;;;;;;5116640;28;20371;-70
2021/10/29 00:39:19;;;;;;;26.92;18.85;;;9.30;99.90;;;;;;5116041;28;20039;-70
2021/10/29 00:41:45;;;;;;;29.08;18.80;;;9.30;99.90;;;;;;5116349;28;20044;-70
2021/10/29 00:44:11;;;;;;;29.80;19.25;;;9.30;99.90;;;;;;5116180;28;20139;-70
2021/10/29 00:46:36;;;;;;;29.65;19.58;;;9.20;99.90;;;;;;5114691;28;20051;-70
2021/10/29 00:49:02;;;;;;;30.33;19.98;;;9.30;99.90;;;;;;5115589;28;20042;-70
2021/10/29 00:51:28;;;;;;;33.35;18.90;;;9.20;99.90;;;;;;5115896;28;20047;-70
2021/10/29 00:53:54;;;;;;;31.30;20.23;;;9.20;99.90;;;;;;5114991;28;20027;-70
2021/10/29 00:56:19;;;;;;;28.65;19.25;;;9.20;99.90;;;;;;5115985;27;20052;-70
2021/10/29 00:58:46;;;;;;;29.52;19.33;;;9.20;99.90;;;;;;5115306;28;20042;-70
2021/10/29 01:01:12;;;;;;;28.55;19.65;;;9.20;99.90;;;;;;5115921;28;20487;-70
2021/10/29 01:03:42;;;;;;;30.27;21.23;;;9.20;99.90;;;;;;5115767;28;20162;-70
2021/10/29 01:06:08;;;;;;;33.00;19.92;;;9.10;99.90;;;;;;5115883;28;20040;-70
2021/10/29 01:08:37;;;;;;;27.80;18.83;;;9.20;99.90;;;;;;5114215;28;20039;-70
2021/10/29 01:11:04;;;;;;;31.92;19.52;;;9.10;99.90;;;;;;5114825;28;20035;-70
2021/10/29 01:13:31;;;;;;;30.23;18.45;;;9.10;99.90;;;;;;5114306;28;20119;-70
2021/10/29 01:15:58;;;;;;;27.45;17.95;;;9.10;99.90;;;;;;5115356;28;20104;-70
2021/10/29 01:18:23;;;;;;;32.60;20.95;;;9.10;99.90;;;;;;5097169;28;20051;-70
2021/10/29 01:20:49;;;;;;;28.58;18.52;;;9.10;99.90;;;;;;5115144;28;20411;-70
2021/10/29 01:23:15;;;;;;;29.38;19.73;;;9.10;99.90;;;;;;5113782;28;20043;-70
2021/10/29 01:25:41;;;;;;;28.65;18.42;;;9.10;99.90;;;;;;5115071;28;20392;-70
2021/10/29 01:28:11;;;;;;;28.85;18.42;;;9.10;99.90;;;;;;5115289;28;20035;-70
2021/10/29 01:30:37;;;;;;;30.00;19.83;;;9.10;99.90;;;;;;5114872;28;20040;-70
2021/10/29 01:33:03;;;;;;;28.30;20.13;;;9.00;99.90;;;;;;5115022;28;20038;-70
2021/10/29 01:35:29;;;;;;;28.98;19.27;;;9.10;99.90;;;;;;5114929;28;20035;-70
2021/10/29 01:37:55;;;;;;;29.85;19.48;;;9.10;99.90;;;;;;5114838;27;20118;-70
2021/10/29 01:40:21;;;;;;;29.40;21.42;;;9.10;99.90;;;;;;5114872;28;20039;-70
2021/10/29 01:42:48;;;;;;;29.88;20.70;;;9.10;99.90;;;;;;5114906;28;20046;-70
2021/10/29 01:45:14;;;;;;;31.73;19.85;;;9.00;99.90;;;;;;5113410;28;20054;-70
2021/10/29 01:47:40;;;;;;;33.17;20.50;;;9.00;99.90;;;;;;5114712;28;20609;-70
2021/10/29 01:50:08;;;;;;;25.83;18.00;;;9.00;99.90;;;;;;5114410;28;20118;-70
2021/10/29 01:52:34;;;;;;;29.70;18.40;;;9.00;99.90;;;;;;5114765;28;20050;-70
2021/10/29 01:55:00;;;;;;;30.48;20.05;;;9.00;99.90;;;;;;5113472;28;20040;-70
2021/10/29 01:57:26;;;;;;;28.58;19.30;;;9.00;99.90;;;;;;5114585;28;20043;-70
2021/10/29 01:59:51;;;;;;;28.70;19.45;;;9.00;99.90;;;;;;5113283;28;20510;-70
2021/10/29 02:02:17;;;;;;;31.20;21.27;;;9.00;99.90;;;;;;5114554;28;20035;-70
2021/10/29 02:04:43;;;;;;;29.15;19.85;;;9.00;99.90;;;;;;5113471;28;20526;-70
2021/10/29 02:07:09;;;;;;;30.33;20.20;;;9.00;99.90;;;;;;5113276;28;20040;-70
2021/10/29 02:09:34;;;;;;;31.02;20.73;;;8.90;99.90;;;;;;5114207;28;20039;-70
2021/10/29 02:12:00;;;;;;;30.75;20.50;;;9.00;99.90;;;;;;5112973;28;20062;-70
2021/10/29 02:14:26;;;;;;;38.85;20.77;;;9.00;99.90;;;;;;5113032;28;20369;-70
2021/10/29 02:16:52;;;;;;;31.17;20.20;;;9.00;99.90;;;;;;5113010;28;20114;-70
2021/10/29 02:19:18;;;;;;;33.22;20.65;;;9.00;99.90;;;;;;5113787;28;20165;-70
2021/10/29 02:21:43;;;;;;;32.38;20.17;;;8.90;99.90;;;;;;5095831;28;20051;-70
2021/10/29 02:24:09;;;;;;;30.58;19.90;;;8.90;99.90;;;;;;5114023;28;20047;-70
2021/10/29 02:26:34;;;;;;;37.78;20.17;;;8.90;99.90;;;;;;5114198;28;20035;-70
2021/10/29 02:29:01;;;;;;;29.55;18.85;;;8.90;99.90;;;;;;5112409;28;20049;-70
2021/10/29 02:31:26;;;;;;;31.73;20.90;;;8.80;99.90;;;;;;5113077;28;20387;-70
2021/10/29 02:33:53;;;;;;;34.35;20.58;;;8.80;99.90;;;;;;5114199;28;20036;-70
2021/10/29 02:36:19;;;;;;;32.15;20.35;;;8.90;99.90;;;;;;5114240;28;20111;-70
2021/10/29 02:38:45;;;;;;;33.08;20.42;;;8.80;99.90;;;;;;5113062;28;20076;-70
2021/10/29 02:41:13;;;;;;;32.40;19.83;;;8.80;99.90;;;;;;5114059;28;20046;-70
2021/10/29 02:43:40;;;;;;;36.53;20.63;;;8.80;99.90;;;;;;5114269;28;20074;-70
2021/10/29 02:46:05;;;;;;;29.77;20.17;;;8.80;99.90;;;;;;5114153;28;20044;-70
2021/10/29 02:48:31;;;;;;;32.42;19.92;;;8.80;99.90;;;;;;5113283;28;20039;-70
2021/10/29 02:50:57;;;;;;;28.83;19.20;;;8.70;99.90;;;;;;5112468;28;20043;-70
2021/10/29 02:53:22;;;;;;;28.98;20.02;;;8.70;99.90;;;;;;5113836;28;20115;-70
2021/10/29 02:55:48;;;;;;;30.00;20.40;;;8.60;99.90;;;;;;5113775;28;20032;-70
2021/10/29 02:58:14;;;;;;;32.70;21.30;;;8.60;99.90;;;;;;5114118;28;20152;-70
2021/10/29 03:00:39;;;;;;;30.10;20.48;;;8.60;99.90;;;;;;5113783;28;20073;-70
2021/10/29 03:03:05;;;;;;;26.33;18.77;;;8.60;99.90;;;;;;5113544;28;20122;-70
2021/10/29 03:05:35;;;;;;;31.70;20.88;;;8.60;99.90;;;;;;5113566;28;20051;-70
2021/10/29 03:08:01;;;;;;;31.92;19.85;;;8.60;99.90;;;;;;5113752;28;20036;-70
2021/10/29 03:10:26;;;;;;;28.45;18.73;;;8.50;99.90;;;;;;5112076;28;20031;-70
2021/10/29 03:12:52;;;;;;;31.95;19.58;;;8.50;99.90;;;;;;5112808;28;20045;-70
2021/10/29 03:15:17;;;;;;;30.00;20.60;;;8.50;99.90;;;;;;5113578;28;20040;-70
2021/10/29 03:17:43;;;;;;;29.05;19.67;;;8.60;99.90;;;;;;5113289;28;20096;-70
2021/10/29 03:20:09;;;;;;;27.27;19.40;;;8.60;99.90;;;;;;5112265;28;20036;-70
2021/10/29 03:22:36;;;;;;;28.92;19.35;;;8.60;99.90;;;;;;5113580;28;20032;-70
2021/10/29 03:25:02;;;;;;;29.23;18.85;;;8.60;99.90;;;;;;5113836;28;20065;-70
2021/10/29 03:27:28;;;;;;;30.95;18.60;;;8.60;99.90;;;;;;5113461;28;20040;-70
2021/10/29 03:29:53;;;;;;;33.28;20.05;;;8.50;99.90;;;;;;5112012;28;20096;-70
2021/10/29 03:32:21;;;;;;;30.20;19.83;;;8.60;99.90;;;;;;5113535;28;20086;-70
2021/10/29 03:34:47;;;;;;;31.17;19.83;;;8.50;99.90;;;;;;5115996;28;20043;-70
2021/10/29 03:37:37;;;;;;;33.25;20.10;;;8.60;99.90;;;;;;5117447;28;20122;-70
2021/10/29 03:40:13;;;;;;;30.63;19.33;;;8.60;99.90;;;;;;5115685;28;20108;-70
2021/10/29 03:42:48;;;;;;;30.98;18.83;;;8.50;99.90;;;;;;5116142;28;20134;-70
2021/10/29 03:45:15;;;;;;;34.15;19.23;;;8.50;99.90;;;;;;5117507;28;20099;-70
2021/10/29 03:47:51;;;;;;;29.25;18.73;;;8.50;99.90;;;;;;5115777;28;20048;-70
2021/10/29 03:50:25;;;;;;;27.05;18.08;;;8.50;99.90;;;;;;5116143;28;20107;-70
2021/10/29 03:53:23;;;;;;;29.05;18.50;;;8.50;99.90;;;;;;5117434;28;20042;-70
2021/10/29 03:55:52;;;;;;;30.88;18.85;;;8.40;99.90;;;;;;5117385;28;20047;-70
2021/10/29 03:58:18;;;;;;;29.08;18.73;;;8.40;99.90;;;;;;5117341;28;20117;-70
2021/10/29 04:00:44;;;;;;;29.80;19.23;;;8.50;99.90;;;;;;5115372;28;20490;-70
2021/10/29 04:03:09;;;;;;;29.35;18.60;;;8.40;99.90;;;;;;5115489;28;20122;-70
2021/10/29 04:05:35;;;;;;;27.65;18.60;;;8.40;99.90;;;;;;5115214;28;20132;-70
2021/10/29 04:08:01;;;;;;;31.05;17.88;;;8.40;99.90;;;;;;5115363;28;20035;-70
2021/10/29 04:10:29;;;;;;;34.03;17.45;;;8.40;99.90;;;;;;5116451;28;20035;-70
2021/10/29 04:12:58;;;;;;;26.27;17.00;;;8.40;99.90;;;;;;5116861;28;20084;-70
2021/10/29 04:15:24;;;;;;;28.50;18.83;;;8.50;99.90;;;;;;5117052;28;20031;-70
2021/10/29 04:17:50;;;;;;;28.77;19.60;;;8.40;99.90;;;;;;5116432;28;20093;-70
2021/10/29 04:20:16;;;;;;;30.88;19.60;;;8.50;99.90;;;;;;5114934;28;20438;-70
2021/10/29 04:22:43;;;;;;;26.63;18.20;;;8.40;99.90;;;;;;5116508;28;20053;-70
2021/10/29 04:25:09;;;;;;;27.40;17.85;;;8.40;99.90;;;;;;5116734;28;20031;-70
2021/10/29 04:27:42;;;;;;;31.52;19.48;;;8.40;99.90;;;;;;5116679;28;20058;-70
2021/10/29 04:30:11;;;;;;;28.67;17.73;;;8.40;99.90;;;;;;5116137;28;20047;-70
2021/10/29 04:32:37;;;;;;;28.17;17.02;;;8.50;99.90;;;;;;5116433;28;20122;-70
2021/10/29 04:35:03;;;;;;;22.60;16.58;;;8.50;99.90;;;;;;5116181;28;20072;-70
2021/10/29 04:37:29;;;;;;;27.77;17.25;;;8.50;99.90;;;;;;5116284;28;20513;-70
2021/10/29 04:39:55;;;;;;;28.20;16.40;;;8.40;99.90;;;;;;5116031;28;20127;-70
2021/10/29 04:42:21;;;;;;;26.05;17.05;;;8.40;99.90;;;;;;5097797;28;20487;-70
2021/10/29 04:44:47;;;;;;;26.45;16.50;;;8.40;99.90;;;;;;5113676;28;20040;-69
2021/10/29 04:47:13;;;;;;;29.50;17.98;;;8.40;99.90;;;;;;5115933;28;20075;-70
2021/10/29 04:49:39;;;;;;;31.25;17.45;;;8.40;99.90;;;;;;5115681;28;20042;-69
2021/10/29 04:52:05;;;;;;;26.27;16.08;;;8.40;99.90;;;;;;5116308;27;20483;-70
2021/10/29 04:54:31;;;;;;;29.23;17.63;;;8.30;99.90;;;;;;5116158;28;20499;-70
2021/10/29 04:56:58;;;;;;;26.25;16.73;;;8.40;99.90;;;;;;5116870;28;20051;-70
2021/10/29 04:59:23;;;;;;;28.15;17.35;;;8.40;99.90;;;;;;5115950;28;20387;-70
2021/10/29 05:01:49;;;;;;;26.45;17.55;;;8.30;99.90;;;;;;5116276;28;20036;-69
2021/10/29 05:04:16;;;;;;;28.15;16.67;;;8.30;99.90;;;;;;5116199;28;20035;-69
2021/10/29 05:06:42;;;;;;;23.73;16.40;;;8.30;99.90;;;;;;5116174;28;20043;-69
2021/10/29 05:09:08;;;;;;;29.15;17.48;;;8.30;99.90;;;;;;5114026;28;20035;-69
2021/10/29 05:11:34;;;;;;;26.70;16.83;;;8.30;99.90;;;;;;5114534;28;20092;-69
2021/10/29 05:13:59;;;;;;;26.30;16.88;;;8.20;99.90;;;;;;5115364;28;20040;-69
2021/10/29 05:16:25;;;;;;;24.85;15.98;;;8.30;99.90;;;;;;5115547;28;20047;-69
2021/10/29 05:18:50;;;;;;;24.35;16.38;;;8.30;99.90;;;;;;5115025;28;20039;-69
2021/10/29 05:21:16;;;;;;;26.25;16.17;;;8.30;99.90;;;;;;5115315;28;20031;-69
2021/10/29 05:23:42;;;;;;;23.95;15.48;;;8.30;99.90;;;;;;5115264;28;20442;-69
2021/10/29 05:26:07;;;;;;;22.80;15.57;;;8.30;99.90;;;;;;5115283;28;20046;-69
2021/10/29 05:28:33;;;;;;;27.80;16.23;;;8.30;99.90;;;;;;5114854;28;20032;-69
2021/10/29 05:30:59;;;;;;;28.38;17.98;;;8.30;99.90;;;;;;5115053;28;20084;-69
2021/10/29 05:33:25;;;;;;;27.55;16.70;;;8.30;99.90;;;;;;5113699;28;20122;-68
2021/10/29 05:35:51;;;;;;;27.85;17.17;;;8.30;99.90;;;;;;5114038;28;20042;-69
2021/10/29 05:38:16;;;;;;;27.92;16.73;;;8.30;99.90;;;;;;5114448;28;20519;-70
2021/10/29 05:40:42;;;;;;;26.60;16.45;;;8.20;99.90;;;;;;5113111;28;20059;-70
2021/10/29 05:43:08;;;;;;;22.55;15.77;;;8.20;99.90;;;;;;5114504;28;20142;-70
2021/10/29 05:45:33;;;;;;;25.45;15.60;;;8.20;99.90;;;;;;5114855;28;20058;-70
2021/10/29 05:48:05;;;;;;;26.38;14.20;;;8.20;99.90;;;;;;5113932;28;20483;-70
2021/10/29 05:50:31;;;;;;;24.67;16.13;;;8.20;99.90;;;;;;5113440;28;20035;-70
2021/10/29 05:52:58;;;;;;;24.02;15.68;;;8.10;99.90;;;;;;5114778;28;20035;-70
2021/10/29 05:55:24;;;;;;;25.85;15.38;;;8.10;99.90;;;;;;5113531;28;20488;-69
2021/10/29 05:57:51;;;;;;;25.85;16.50;;;8.10;99.90;;;;;;5115053;28;20043;-70
2021/10/29 06:00:20;;;;;;;23.23;15.90;;;8.10;99.90;;;;;;5112996;28;20460;-70
2021/10/29 06:02:47;;;;;;;21.50;15.05;;;8.10;99.90;;;;;;5114345;28;20476;-70
2021/10/29 06:05:13;;;;;;;21.55;14.90;;;8.10;99.90;;;;;;5113263;28;20488;-70
2021/10/29 06:07:39;;;;;;;22.40;15.45;;;8.10;99.90;;;;;;5114623;28;20050;-70
2021/10/29 06:10:07;;;;;;;24.02;15.07;;;8.10;99.90;;;;;;5114115;28;20048;-70
2021/10/29 06:12:36;;;;;;;26.02;15.90;;;8.20;99.90;;;;;;5113169;28;20071;-70
2021/10/29 06:15:02;;;;;;;26.75;17.40;;;8.10;99.90;;;;;;5114129;28;20046;-70
2021/10/29 06:17:29;;;;;;;22.02;14.73;;;8.20;99.90;;;;;;5114002;27;20062;-70
2021/10/29 06:19:55;;;;;;;24.42;15.98;;;8.10;99.90;;;;;;5114211;28;20044;-70
2021/10/29 06:22:24;;;;;;;23.35;14.80;;;8.10;99.90;;;;;;5114467;28;20046;-70
2021/10/29 06:24:51;;;;;;;21.38;14.50;;;8.20;99.90;;;;;;5113115;28;20043;-70
2021/10/29 06:29:47;;;;;;;23.33;16.05;;;8.20;99.90;;;;;;5114343;28;20044;-70
2021/10/29 06:32:15;;;;;;;24.83;16.25;;;8.20;99.90;;;;;;5113892;28;20067;-70
2021/10/29 06:34:42;;;;;;;24.48;14.88;;;8.20;99.90;;;;;;5114098;28;20063;-70
2021/10/29 06:37:14;;;;;;;24.13;14.35;;;8.20;99.90;;;;;;5114073;28;20045;-70
2021/10/29 06:39:39;;;;;;;23.02;15.73;;;8.20;99.90;;;;;;5113839;28;20491;-70
2021/10/29 06:42:09;;;;;;;22.80;15.18;;;8.20;99.90;;;;;;5114029;28;20053;-70
2021/10/29 07:40:46;;;;;;;19.40;12.85;;;9.90;99.90;;;;;;5096754;28;20036;-70
2021/10/29 07:43:27;;;;;;;16.15;11.63;;;10.10;99.90;;;;;;5095679;28;20040;-70
2021/10/29 07:45:52;;;;;;;17.70;11.43;;;10.20;99.90;;;;;;5096939;28;20048;-70
2021/10/29 07:48:18;;;;;;;18.08;12.25;;;10.30;99.90;;;;;;5096591;28;20092;-70
2021/10/29 07:50:44;;;;;;;20.20;11.35;;;10.40;99.90;;;;;;5095061;28;20572;-70
2021/10/29 07:53:10;;;;;;;18.30;11.05;;;10.50;99.90;;;;;;5095271;28;20044;-70
2021/10/29 07:55:36;;;;;;;16.95;10.82;;;10.60;99.90;;;;;;5096758;28;20040;-70
2021/10/29 07:58:03;;;;;;;16.95;11.80;;;10.70;99.90;;;;;;5096456;28;20396;-70
2021/10/29 08:00:30;;;;;;;14.45;11.05;;;10.80;99.90;;;;;;5096449;28;20036;-70
2021/10/29 08:02:57;;;;;;;22.30;11.30;;;10.90;99.90;;;;;;5096919;28;20123;-70
2021/10/29 08:05:22;;;;;;;17.83;11.68;;;11.10;99.90;;;;;;5096153;28;20081;-70
2021/10/29 08:07:52;;;;;;;18.77;10.77;;;11.20;99.90;;;;;;5096412;28;20036;-70
2021/10/29 08:10:18;;;;;;;14.00;10.13;;;11.30;99.90;;;;;;5094623;28;20130;-70
2021/10/29 08:12:44;;;;;;;16.70;11.55;;;11.40;99.90;;;;;;5096454;28;20043;-70
2021/10/29 08:15:10;;;;;;;15.80;10.63;;;11.50;99.90;;;;;;5095561;28;20044;-70
2021/10/29 08:17:36;;;;;;;15.13;10.68;;;11.60;99.90;;;;;;5094836;28;20048;-70
2021/10/29 08:20:07;;;;;;;19.95;11.02;;;11.70;99.90;;;;;;5095441;28;20115;-70
2021/10/29 08:22:33;;;;;;;18.10;9.27;;;11.70;99.90;;;;;;5094898;28;20048;-70
2021/10/29 08:24:59;;;;;;;17.95;10.55;;;11.80;99.90;;;;;;5096076;28;20089;-70
2021/10/29 08:27:25;;;;;;;13.50;10.48;;;11.80;99.90;;;;;;5096069;28;20127;-70
2021/10/29 08:29:51;;;;;;;13.93;9.57;;;11.80;99.90;;;;;;5095545;28;20032;-70
2021/10/29 08:32:17;;;;;;;14.10;9.80;;;11.80;99.90;;;;;;5095931;28;20040;-70
2021/10/29 08:34:43;;;;;;;17.45;10.35;;;11.90;99.90;;;;;;5095744;28;20055;-71
2021/10/29 08:37:09;;;;;;;15.55;10.00;;;11.90;99.90;;;;;;5095908;28;20070;-70
2021/10/29 08:39:37;;;;;;;14.02;9.32;;;11.90;99.90;;;;;;5095512;28;20466;-70
2021/10/29 08:42:04;;;;;;;12.52;8.27;;;12.00;99.90;;;;;;5094343;28;20082;-70
2021/10/29 08:44:34;;;;;;;16.65;9.48;;;12.00;99.90;;;;;;5096459;28;20051;-70
2021/10/29 08:47:02;;;;;;;16.08;10.65;;;12.10;99.90;;;;;;5096228;28;20058;-70
2021/10/29 08:49:29;;;;;;;14.57;9.77;;;12.10;99.90;;;;;;5094027;28;20048;-70
2021/10/29 08:51:55;;;;;;;12.32;9.52;;;12.20;99.90;;;;;;5095526;28;20075;-70
2021/10/29 08:54:22;;;;;;;14.77;9.75;;;12.30;99.90;;;;;;5095860;28;20063;-70
2021/10/29 08:56:47;;;;;;;16.75;9.80;;;12.40;99.90;;;;;;5095673;28;20051;-70
2021/10/29 08:59:17;;;;;;;15.70;9.35;;;12.40;99.90;;;;;;5094936;28;20115;-70
2021/10/29 09:02:26;;;;;;;16.77;9.27;;;12.40;99.90;;;;;;5095201;28;20377;-71
2021/10/29 09:10:56;;;;;;;11.70;8.73;;;12.60;99.90;;;;;;5049850;28;20044;-71
2021/10/29 09:16:58;;;;;;;14.98;9.32;;;12.70;99.90;;;;;;5094884;28;20048;-71
2021/10/29 09:33:56;;;;;;;14.80;9.52;;;12.90;99.90;;;;;;5094682;28;20044;-71
2021/10/29 09:36:37;;;;;;;14.65;8.85;;;12.90;99.90;;;;;;5093698;28;20082;-71
2021/10/29 09:39:08;;;;;;;14.00;8.88;;;13.00;99.90;;;;;;5094343;28;20051;-71
2021/10/29 09:41:38;;;;;;;14.05;8.65;;;13.00;99.90;;;;;;5093163;28;20036;-71
2021/10/29 09:44:10;;;;;;;14.05;8.88;;;13.00;99.90;;;;;;5094821;28;20036;-71
2021/10/29 09:46:55;;;;;;;10.55;7.10;;;13.10;99.90;;;;;;5094618;28;20131;-71
2021/10/29 09:49:33;;;;;;;13.18;9.93;;;13.10;99.90;;;;;;5094216;28;20119;-71
2021/10/29 09:57:31;;;;;;;11.70;8.43;;;13.40;99.90;;;;;;5094326;28;20040;-71
2021/10/29 10:00:04;;;;;;;11.38;7.70;;;13.40;99.90;;;;;;5093708;28;20046;-71
2021/10/29 10:02:29;;;;;;;11.60;7.70;;;13.50;99.90;;;;;;5094241;28;20028;-71
2021/10/29 10:05:00;;;;;;;11.65;8.93;;;13.60;99.90;;;;;;5094332;28;20456;-71
2021/10/29 10:07:36;;;;;;;13.88;8.52;;;13.70;99.90;;;;;;5094031;28;20044;-70
2021/10/29 10:10:05;;;;;;;10.50;7.57;;;13.70;99.90;;;;;;5093675;28;20027;-70
2021/10/29 10:12:33;;;;;;;11.63;8.02;;;13.70;99.90;;;;;;5092027;28;20123;-71
2021/10/29 10:15:00;;;;;;;8.18;6.97;;;13.80;99.90;;;;;;5092939;28;20040;-70
2021/10/29 10:17:26;;;;;;;11.02;8.27;;;14.00;99.90;;;;;;5092441;28;20042;-71
2021/10/29 10:19:53;;;;;;;12.95;7.88;;;14.10;99.90;;;;;;5093727;28;20036;-71
2021/10/29 10:22:21;;;;;;;13.18;8.20;;;14.20;99.90;;;;;;5093478;28;20048;-71
2021/10/29 10:24:52;;;;;;;14.00;8.25;;;14.30;99.90;;;;;;5094067;28;20134;-70
2021/10/29 10:30:15;;;;;;;12.40;7.75;;;14.40;99.90;;;;;;5093492;28;20040;-71
2021/10/29 10:46:51;;;;;;;15.52;7.90;;;14.60;99.90;;;;;;5093360;28;20046;-71
2021/10/29 10:49:30;;;;;;;15.93;8.48;;;14.70;99.90;;;;;;5093128;28;20092;-72
2021/10/29 10:52:21;;;;;;;11.65;7.20;;;14.70;99.90;;;;;;5094131;28;20218;-71
2021/10/29 10:54:55;;;;;;;12.35;7.55;;;14.80;99.90;;;;;;5092631;28;20044;-72
2021/10/29 11:10:34;;;;;;;11.55;7.90;;;14.90;99.90;;;;;;5091605;28;20048;-71
2021/10/29 11:13:00;;;;;;;13.35;7.57;;;14.90;99.90;;;;;;5091920;28;20040;-72
2021/10/29 11:15:28;;;;;;;9.75;7.25;;;14.90;99.90;;;;;;5091849;28;20094;-72
2021/10/29 11:17:59;;;;;;;12.18;7.82;;;15.00;99.90;;;;;;5091521;28;20085;-72
2021/10/29 11:20:57;;;;;;;13.20;8.38;;;15.00;99.90;;;;;;5093145;28;20040;-71
2021/10/29 11:23:34;;;;;;;10.70;7.45;;;15.00;99.90;;;;;;5093012;28;20036;-72
2021/10/29 11:26:06;;;;;;;11.77;6.72;;;15.00;99.90;;;;;;5093231;28;20041;-72
2021/10/29 11:28:35;;;;;;;14.15;7.15;;;15.00;99.90;;;;;;5092797;28;20044;-71
2021/10/29 11:31:05;;;;;;;12.80;7.93;;;15.10;99.90;;;;;;5093332;28;20066;-71
2021/10/29 11:33:31;;;;;;;13.07;8.55;;;15.10;99.90;;;;;;5093329;28;20089;-71
2021/10/29 11:36:05;;;;;;;14.70;7.55;;;15.10;99.90;;;;;;5093003;28;20127;-70
2021/10/29 11:38:37;;;;;;;9.73;6.80;;;15.10;99.90;;;;;;5092525;28;20115;-71
2021/10/29 11:41:16;;;;;;;11.88;7.32;;;15.10;99.90;;;;;;5091934;28;20123;-71
2021/10/29 11:43:42;;;;;;;11.20;7.63;;;15.20;99.90;;;;;;5092826;28;20051;-71
2021/10/29 11:46:11;;;;;;;10.82;7.28;;;15.20;99.90;;;;;;5092746;28;20036;-70
2021/10/29 11:49:02;;;;;;;12.48;7.63;;;15.10;99.90;;;;;;5092669;28;20059;-71
2021/10/29 11:51:29;;;;;;;12.27;7.65;;;15.20;99.90;;;;;;5093002;28;20035;-71
2021/10/29 11:54:23;;;;;;;12.23;7.05;;;15.10;99.90;;;;;;5094204;28;20112;-71
2021/10/29 11:57:20;;;;;;;8.70;7.18;;;15.20;99.90;;;;;;5094953;28;20060;-71
2021/10/29 12:07:27;;;;;;;12.23;7.85;;;15.20;99.90;;;;;;5040206;28;20056;-71
2021/10/29 12:10:17;;;;;;;12.00;7.95;;;15.20;99.90;;;;;;5095840;28;20111;-71
2021/10/29 12:12:45;;;;;;;11.10;7.65;;;15.30;99.90;;;;;;5096396;28;20077;-71
2021/10/29 12:15:15;;;;;;;9.85;6.50;;;15.30;99.90;;;;;;5096333;28;20107;-71
2021/10/29 12:17:56;;;;;;;9.68;7.38;;;15.30;99.90;;;;;;5096173;28;20354;-71
2021/10/29 12:20:25;;;;;;;9.60;7.70;;;15.30;99.90;;;;;;5095983;28;20082;-71
2021/10/29 12:23:01;;;;;;;11.10;7.40;;;15.40;99.90;;;;;;5094945;28;20120;-70
2021/10/29 12:26:13;;;;;;;11.07;7.63;;;15.50;99.90;;;;;;5095298;28;20177;-73
2021/10/29 12:28:27;;;;;;;11.40;7.00;;;15.60;99.90;;;;;;5085160;28;20093;-71
2021/10/29 12:47:34;;;;;;;9.65;6.53;;;15.80;99.90;;;;;;5095545;28;20052;-72
2021/10/29 12:53:42;;;;;;;11.77;7.07;;;15.90;99.90;;;;;;5095794;28;20050;-71
2021/10/29 12:59:16;;;;;;;9.40;5.57;;;15.90;99.90;;;;;;5095078;28;20052;-71
2021/10/29 13:01:57;;;;;;;9.10;5.78;;;16.00;99.90;;;;;;5094002;28;20097;-71
2021/10/29 13:04:39;;;;;;;9.63;5.90;;;16.10;99.90;;;;;;5095698;28;20058;-72
2021/10/29 13:07:06;;;;;;;10.40;6.40;;;16.00;99.90;;;;;;5094638;28;20043;-71
2021/10/29 13:09:35;;;;;;;11.82;5.55;;;16.10;99.90;;;;;;5095036;28;20052;-72
2021/10/29 13:12:53;;;;;;;12.18;5.97;;;16.10;99.90;;;;;;5095163;28;20090;-70
2021/10/29 13:14:59;;;;;;;8.35;5.07;;;16.10;99.90;;;;;;5083526;28;20035;-71
2021/10/29 13:17:31;;;;;;;8.73;5.03;;;16.20;99.90;;;;;;5095193;28;20113;-72
2021/10/29 13:59:52;;;;;;;7.05;4.97;;;15.90;99.90;;;;;;5051599;28;20052;-71
2021/10/29 14:02:48;;;;;;;9.80;5.43;;;15.80;99.90;;;;;;5092566;28;20048;-71
2021/10/29 14:16:37;;;;;;;10.15;6.43;;;15.60;99.90;;;;;;5092479;28;20123;-71
2021/10/29 14:30:17;;;;;;;10.98;6.53;;;15.50;99.90;;;;;;5063758;28;20040;-71
2021/10/29 14:38:38;;;;;;;10.50;6.10;;;15.60;99.90;;;;;;5075932;28;20040;-71
2021/10/29 14:41:23;;;;;;;11.00;6.47;;;15.50;99.90;;;;;;5093808;28;20123;-68
2021/10/29 14:43:54;;;;;;;9.95;6.22;;;15.70;99.90;;;;;;5094021;28;20047;-70
2021/10/29 14:46:42;;;;;;;8.80;5.18;;;15.80;99.90;;;;;;5093542;28;20042;-70
2021/10/29 14:49:27;;;;;;;8.02;5.15;;;15.90;99.90;;;;;;5093275;28;20040;-70
2021/10/29 15:25:16;;;;;;;8.30;5.40;;;15.70;99.90;;;;;;5093471;28;20044;-70
2021/10/29 15:30:58;;;;;;;9.10;5.18;;;15.60;99.90;;;;;;5096225;28;20040;-70
2021/10/29 15:41:08;;;;;;;8.15;5.10;;;15.50;99.90;;;;;;5096949;28;20410;-70
2021/10/29 15:41:39;;;;;;;;;;;15.30;99.90;;;;;;5096617;28;20044;-70
2021/10/29 15:44:08;;;;;;;;;;;15.30;99.90;;;;;;5097408;28;20598;-70
2021/10/29 15:49:23;;;;;;;8.23;5.32;;;15.10;99.90;;;;;;5095444;28;20055;-71
2021/10/29 15:51:56;;;;;;;8.23;4.82;;;15.00;99.90;;;;;;5095654;28;20476;-70
2021/10/29 15:54:22;;;;;;;8.65;5.07;;;15.00;99.90;;;;;;5097034;28;20040;-70
2021/10/29 15:56:54;;;;;;;8.48;6.07;;;15.00;99.90;;;;;;5095569;28;20044;-70
2021/10/29 16:18:11;;;;;;;13.15;6.78;;;14.30;99.90;;;;;;5096057;28;20044;-70
2021/10/29 16:20:36;;;;;;;9.70;6.53;;;14.40;99.90;;;;;;5096453;28;20087;-70
2021/10/29 16:23:03;;;;;;;10.57;5.65;;;14.40;99.90;;;;;;5096317;28;20032;-70
2021/10/29 16:25:33;;;;;;;10.02;6.30;;;14.30;99.90;;;;;;5095030;28;20044;-70
2021/10/29 16:28:08;;;;;;;10.73;6.63;;;14.30;99.90;;;;;;5094843;28;20048;-70
2021/10/29 16:30:34;;;;;;;9.60;5.78;;;14.20;99.90;;;;;;5095743;28;20044;-71
2021/10/29 16:35:38;;;;;;;9.82;6.13;;;14.10;99.90;;;;;;5096149;28;20044;-71
2021/10/29 16:38:06;;;;;;;12.80;7.68;;;14.10;99.90;;;;;;5094057;28;20056;-70
2021/10/29 16:40:33;;;;;;;12.73;7.32;;;14.10;99.90;;;;;;5095582;28;20438;-70
2021/10/29 16:42:59;;;;;;;12.40;6.88;;;14.00;99.90;;;;;;5095914;28;20051;-70
2021/10/29 16:45:27;;;;;;;10.68;6.22;;;14.00;99.90;;;;;;5095002;28;20058;-70
2021/10/29 16:47:53;;;;;;;9.73;6.22;;;13.90;99.90;;;;;;5095585;28;20123;-70
2021/10/29 16:50:20;;;;;;;10.80;7.10;;;14.00;99.90;;;;;;5095130;28;20124;-70
2021/10/29 16:52:48;;;;;;;9.60;6.75;;;13.90;99.90;;;;;;5094267;28;20097;-70
2021/10/29 16:55:14;;;;;;;10.00;6.50;;;13.90;99.90;;;;;;5094451;28;20066;-70
2021/10/29 16:57:40;;;;;;;14.57;6.70;;;13.80;99.90;;;;;;5095952;28;20036;-70
2021/10/29 17:00:09;;;;;;;10.32;7.53;;;13.80;99.90;;;;;;5094392;28;20048;-70
2021/10/29 17:02:34;;;;;;;13.57;7.53;;;13.70;99.90;;;;;;5095492;28;20039;-70
2021/10/29 17:05:00;;;;;;;11.18;7.10;;;13.70;99.90;;;;;;5095404;28;20081;-71
2021/10/29 17:07:26;;;;;;;12.32;7.10;;;13.60;99.90;;;;;;5095591;28;20047;-70
2021/10/29 17:09:53;;;;;;;9.13;6.50;;;13.70;99.90;;;;;;5095326;28;20119;-70
2021/10/29 17:12:21;;;;;;;8.63;7.50;;;13.60;99.90;;;;;;5095395;28;20498;-70
2021/10/29 17:14:47;;;;;;;11.45;7.35;;;13.60;99.90;;;;;;5095593;28;20086;-71
2021/10/29 17:17:13;;;;;;;12.23;7.25;;;13.50;99.90;;;;;;5095236;28;20048;-70
2021/10/29 17:19:38;;;;;;;12.05;7.28;;;13.60;99.90;;;;;;5094545;28;20036;-70
2021/10/29 17:22:06;;;;;;;12.63;7.00;;;13.60;99.90;;;;;;5095190;28;20051;-70
2021/10/29 17:24:31;;;;;;;11.60;6.78;;;13.60;99.90;;;;;;5093596;28;20054;-70
2021/10/29 17:26:57;;;;;;;10.38;6.43;;;13.60;99.90;;;;;;5095341;28;20040;-70
2021/10/29 17:29:23;;;;;;;9.43;6.85;;;13.60;99.90;;;;;;5094742;28;20059;-70